»·PEaware :: UAL536 KBIL-KDEN

UAL536 :: KBIL-KDEN

FLIGHT INFORMATION

Flight Status: Arrived
Operator:
United Airlines
More flights by this operator :: More flights under this callsign
Pilot: Patricio R. (14780)
Aircraft: AIRBUS A320
(A320)
More flights by this aircraft type
Origin: KBIL Billings Logan Intl
United States
Destination: KDEN Denver Intl
United States
More flights between these airports :: More routes between these airports
Route: +BIL FLAYT FOXXS SHR CZI MBW OPPEE MOLTN3
File this flight plan on PilotEdge
Remarks: PBN / A1B1C1D1O1S1 DOF / 180901 REG / FFA320 EET / KZDV0019 OPR / UAL PER / C RMK / TCAS SIMBRIEF
Altitude:
(Current/Filed)
35,000ft
Speed:
(Current/Filed)
451kts
Departed: 01-Sep-18 04:30 PM
Arrived: 01-Sep-18 05:40 PM
Distance/Time
Traveled:
395nm/1:10
Distance/Time
To Go:
Arrived

Flight Plot

Page will automatically refresh every two minutes.

Flight plan parsing failed; only flown route is shown


Map Options




Map Legend


Flown Route
Filed Route
Departure Airport
Arrival Airport
Navaid (VOR, NDB)
Fix

Horizontal Profiles

Position Reports

Time Latitude Longitude Heading Altitude Ground
Speed
01-Sep-18 16:07 45.804162 -108.537628 179 3545ft 0kts
01-Sep-18 16:08 45.804162 -108.537628 179 3545ft 0kts
01-Sep-18 16:09 45.804162 -108.537628 179 3545ft 0kts
01-Sep-18 16:10 45.804162 -108.537628 179 3545ft 0kts
01-Sep-18 16:11 45.804162 -108.537628 179 3545ft 0kts
01-Sep-18 16:12 45.804162 -108.537628 179 3545ft 0kts
01-Sep-18 16:13 45.804162 -108.537628 179 3545ft 0kts
01-Sep-18 16:14 45.804162 -108.537628 179 3545ft 0kts
01-Sep-18 16:15 45.804162 -108.537628 179 3545ft 0kts
01-Sep-18 16:16 45.804432 -108.537627 179 3545ft 2kts
01-Sep-18 16:16 45.804867 -108.537690 148 3545ft 2kts
01-Sep-18 16:18 45.804999 -108.538481 54 3547ft 1kts
01-Sep-18 16:19 45.804973 -108.538530 54 3547ft 0kts
01-Sep-18 16:20 45.805202 -108.538065 54 3546ft 6kts
01-Sep-18 16:20 45.805139 -108.535470 96 3535ft 12kts
01-Sep-18 16:21 45.804135 -108.528209 111 3511ft 22kts
01-Sep-18 16:23 45.801326 -108.518507 111 3483ft 8kts
01-Sep-18 16:24 45.801158 -108.517636 87 3481ft 0kts
01-Sep-18 16:24 45.801158 -108.517636 0 3481ft 0kts
01-Sep-18 16:25 45.801158 -108.517636 87 3481ft 0kts
01-Sep-18 16:26 45.801158 -108.517636 87 3481ft 0kts
01-Sep-18 16:27 45.801158 -108.517636 87 3481ft 0kts
01-Sep-18 16:28 45.801158 -108.517636 87 3481ft 0kts
01-Sep-18 16:29 45.801158 -108.517636 87 3481ft 0kts
01-Sep-18 16:30 45.802240 -108.516975 282 3481ft 1kts
01-Sep-18 16:31 45.807920 -108.537725 292 3557ft 161kts
01-Sep-18 16:32 45.825568 -108.601591 293 6145ft 186kts
01-Sep-18 16:33 45.834422 -108.686697 240 7928ft 273kts
01-Sep-18 16:34 45.761553 -108.698250 138 10619ft 323kts
01-Sep-18 16:35 45.709978 -108.579202 119 12473ft 373kts
01-Sep-18 16:36 45.657351 -108.447744 120 15010ft 389kts
01-Sep-18 16:37 45.603188 -108.313850 121 17286ft 403kts
01-Sep-18 16:38 45.546057 -108.173412 121 19389ft 416kts
01-Sep-18 16:39 45.487052 -108.029112 121 21282ft 428kts
01-Sep-18 16:40 45.426205 -107.881083 121 23005ft 440kts
01-Sep-18 16:41 45.357670 -107.735266 128 24566ft 450kts
01-Sep-18 16:42 45.282727 -107.591129 128 26021ft 459kts
01-Sep-18 16:43 45.193498 -107.462276 143 27354ft 463kts
01-Sep-18 16:44 45.093149 -107.347044 144 28599ft 470kts
01-Sep-18 16:45 44.990936 -107.230123 143 29793ft 475kts
01-Sep-18 16:46 44.887811 -107.112738 142 30825ft 481kts
01-Sep-18 16:47 44.776889 -107.011821 153 32047ft 475kts
01-Sep-18 16:48 44.660671 -106.924551 153 33209ft 473kts
01-Sep-18 16:49 44.545627 -106.838546 152 34321ft 469kts
01-Sep-18 16:50 44.431018 -106.753260 152 35017ft 465kts
01-Sep-18 16:51 44.317280 -106.669008 152 35024ft 466kts
01-Sep-18 16:52 44.202630 -106.584450 152 35024ft 466kts
01-Sep-18 16:53 44.104089 -106.512072 152 35023ft 466kts
01-Sep-18 16:54 43.987617 -106.434734 167 35024ft 465kts
01-Sep-18 16:55 43.860511 -106.406944 172 35031ft 463kts
01-Sep-18 16:56 43.734014 -106.380845 172 35013ft 462kts
01-Sep-18 16:57 43.607094 -106.354790 172 35004ft 462kts
01-Sep-18 16:58 43.480040 -106.328823 173 35006ft 462kts
01-Sep-18 16:59 43.353606 -106.303094 173 35010ft 462kts
01-Sep-18 17:00 43.226544 -106.277347 173 35014ft 462kts
01-Sep-18 17:01 43.099611 -106.251734 173 35018ft 463kts
01-Sep-18 17:02 42.972544 -106.226198 173 35030ft 462kts
01-Sep-18 17:03 42.846682 -106.201001 174 35063ft 456kts
01-Sep-18 17:04 42.740881 -106.179910 174 35024ft 451kts
01-Sep-18 17:05 42.604986 -106.152933 174 34972ft 449kts
01-Sep-18 17:06 42.481631 -106.128546 174 34973ft 449kts
01-Sep-18 17:07 42.358277 -106.104253 174 34995ft 450kts
01-Sep-18 17:08 42.234806 -106.080030 174 35014ft 451kts
01-Sep-18 17:09 42.111174 -106.055873 174 35141ft 451kts
01-Sep-18 17:10 41.986964 -106.031702 174 35177ft 451kts
01-Sep-18 17:11 41.863081 -106.012733 186 35172ft 448kts
01-Sep-18 17:12 41.747636 -106.065724 207 35185ft 442kts
01-Sep-18 17:13 41.636678 -106.134865 207 35157ft 440kts
01-Sep-18 17:14 41.524784 -106.199377 194 35145ft 444kts
01-Sep-18 17:15 41.405146 -106.165976 146 35176ft 463kts
01-Sep-18 17:16 41.304117 -106.061543 144 34633ft 459kts
01-Sep-18 17:17 41.203064 -105.957182 144 33683ft 463kts
01-Sep-18 17:18 41.101309 -105.853320 144 32731ft 460kts
01-Sep-18 17:19 41.001468 -105.751208 148 31155ft 448kts
01-Sep-18 17:20 40.904501 -105.652491 149 29251ft 435kts
01-Sep-18 17:21 40.813165 -105.559906 148 27392ft 425kts
01-Sep-18 17:22 40.720363 -105.466191 147 25388ft 417kts
01-Sep-18 17:23 40.629257 -105.374505 146 23441ft 409kts
01-Sep-18 17:24 40.540772 -105.285740 146 21840ft 391kts
01-Sep-18 17:25 40.453847 -105.206628 151 20658ft 373kts
01-Sep-18 17:26 40.366933 -105.136432 150 19006ft 363kts
01-Sep-18 17:27 40.282276 -105.068752 149 17363ft 354kts
01-Sep-18 17:28 40.200478 -105.003252 147 16142ft 339kts
01-Sep-18 17:29 40.120617 -104.939277 147 15034ft 332kts
01-Sep-18 17:30 40.043438 -104.877625 146 13953ft 320kts
01-Sep-18 17:31 39.968654 -104.818052 147 12777ft 313kts
01-Sep-18 17:32 39.885061 -104.806397 180 11519ft 301kts
01-Sep-18 17:33 39.806495 -104.809011 180 11050ft 264kts
01-Sep-18 17:34 39.734833 -104.812868 181 11039ft 259kts
01-Sep-18 17:35 39.685090 -104.766198 91 9896ft 249kts
01-Sep-18 17:36 39.685779 -104.678403 72 9121ft 231kts
01-Sep-18 17:37 39.728842 -104.662432 350 7681ft 177kts
01-Sep-18 17:38 39.773661 -104.661227 357 6519ft 154kts
01-Sep-18 17:39 39.816215 -104.660624 358 5716ft 152kts
01-Sep-18 17:40 39.848745 -104.660292 0 5443ft 68kts
01-Sep-18 17:41 39.860134 -104.661100 270 5443ft 11kts
01-Sep-18 17:42 39.860568 -104.666340 273 5443ft 14kts
01-Sep-18 17:43 39.860612 -104.670582 270 5443ft 19kts
01-Sep-18 17:44 39.859362 -104.671990 178 5443ft 1kts
01-Sep-18 17:45 39.859265 -104.671989 179 5443ft 0kts

Navigation Log

Ident Type
Flight plan parsing failed, navigation log unavailable